Catalonia — 9HWS7 — position and weather

sailwx.info

Track history (hours):
 
Tides and Currents Weather Stations Pressure Air Temp Water Temp Dewpoint Dewpoint Depression Visibility Wind Speed Wind Dir Waves Ship Positions

Catalonia

Last reported at 2018-Jul-10 17:01 UTC. Time now 2018-Jul-17 05:31 UTC.
Position N 34°25' W 127°25'.

Length 189 m; draft 11.4 m.

Type: Ship. MMSI: 215929000.

Date/timePositionNaut miles runAvg speedWind from/ knotsBaromVisibWave heightAir tempDewpointWater temp
2018-Jul-10 17:01N 34°25' W 127°25'112.6
2018-Jul-10 16:55N 34°24' W 127°24'1212.3
2018-Jul-10 15:58N 34°16' W 127°13'612.5
2018-Jul-10 15:30N 34°12' W 127°08'611.9
2018-Jul-10 15:00N 34°08' W 127°03'612.0
2018-Jul-10 14:28N 34°04' W 126°57'611.9
2018-Jul-10 14:00N 34°00' W 126°52'611.9
2018-Jul-10 13:30N 33°56' W 126°47'611.9
2018-Jul-10 13:00N 33°52' W 126°42'611.9
2018-Jul-10 12:30N 33°48' W 126°36'611.9
2018-Jul-10 11:59N 33°44' W 126°31'612.0
2018-Jul-10 11:30N 33°40' W 126°26'611.8
2018-Jul-10 11:00N 33°36' W 126°21'611.6
2018-Jul-10 10:30N 33°32' W 126°15'611.7
2018-Jul-10 10:00N 33°28' W 126°10'611.6
2018-Jul-10 09:30N 33°24' W 126°05'611.6
2018-Jul-10 09:00N 33°21' W 125°60'611.7
2018-Jul-10 08:30N 33°17' W 125°55'611.6
2018-Jul-10 08:00N 33°13' W 125°50'611.6
2018-Jul-10 07:30N 33°09' W 125°45'611.7
2018-Jul-10 07:00N 33°05' W 125°39'611.7
2018-Jul-10 06:30N 33°01' W 125°34'611.7
2018-Jul-10 06:00N 32°57' W 125°29'611.8
2018-Jul-10 05:29N 32°53' W 125°24'611.7
2018-Jul-10 05:00N 32°49' W 125°19'611.7
2018-Jul-10 04:30N 32°45' W 125°14'611.4
2018-Jul-10 04:00N 32°41' W 125°09'611.5
2018-Jul-10 03:30N 32°37' W 125°04'611.7
2018-Jul-10 03:00N 32°34' W 124°58'611.7
2018-Jul-10 02:30N 32°30' W 124°53'611.7
2018-Jul-10 02:00N 32°26' W 124°48'611.8
2018-Jul-10 01:28N 32°21' W 124°43'611.8
2018-Jul-10 01:00N 32°18' W 124°38'611.5
2018-Jul-10 00:29N 32°14' W 124°32'511.4
2018-Jul-10 00:00N 32°10' W 124°28'611.3
2018-Jul-09 23:30N 32°06' W 124°23'611.2
2018-Jul-09 23:00N 32°02' W 124°18'611.3
2018-Jul-09 22:30N 31°59' W 124°13'611.7
2018-Jul-09 22:00N 31°55' W 124°08'611.5
2018-Jul-09 21:30N 31°51' W 124°03'611.5
2018-Jul-09 21:00N 31°47' W 123°58'611.6
2018-Jul-09 20:30N 31°43' W 123°53'611.6
2018-Jul-09 20:00N 31°39' W 123°48'611.5
2018-Jul-09 19:30N 31°35' W 123°43'611.8
2018-Jul-09 19:00N 31°31' W 123°38'611.9
2018-Jul-09 18:30N 31°27' W 123°33'611.6
2018-Jul-09 18:00N 31°23' W 123°28'611.5
2018-Jul-09 17:30N 31°19' W 123°23'611.6
2018-Jul-09 17:00N 31°16' W 123°18'611.6
2018-Jul-09 16:30N 31°12' W 123°12'611.6
2018-Jul-09 16:00N 31°08' W 123°07'611.8
2018-Jul-09 15:30N 31°04' W 123°02'611.9
2018-Jul-09 15:00N 30°60' W 122°57'612.1
2018-Jul-09 14:30N 30°56' W 122°52'612.0
2018-Jul-09 14:00N 30°52' W 122°47'612.0
2018-Jul-09 13:31N 30°48' W 122°42'611.9
2018-Jul-09 13:00N 30°44' W 122°37'612.0
2018-Jul-09 12:30N 30°40' W 122°32'611.9
2018-Jul-09 12:00N 30°36' W 122°26'612.0
2018-Jul-09 11:30N 30°32' W 122°21'612.1
2018-Jul-09 11:00N 30°27' W 122°16'612.2
2018-Jul-09 10:30N 30°23' W 122°11'612.3
2018-Jul-09 10:00N 30°19' W 122°06'612.2
2018-Jul-09 09:30N 30°15' W 122°00'612.2
2018-Jul-09 09:00N 30°11' W 121°55'612.0
2018-Jul-09 08:30N 30°07' W 121°50'612.0
2018-Jul-09 08:00N 30°03' W 121°45'611.9
2018-Jul-09 07:30N 29°59' W 121°40'611.7
2018-Jul-09 06:59N 29°55' W 121°35'611.6
2018-Jul-09 06:30N 29°51' W 121°30'611.7
2018-Jul-09 06:00N 29°47' W 121°25'611.8
2018-Jul-09 05:30N 29°43' W 121°20'611.9
2018-Jul-09 05:00N 29°39' W 121°15'611.9
2018-Jul-09 04:30N 29°35' W 121°10'612.1
2018-Jul-09 04:00N 29°31' W 121°05'612.2
2018-Jul-09 03:30N 29°27' W 120°59'612.3
2018-Jul-09 03:00N 29°23' W 120°54'612.2
2018-Jul-09 02:30N 29°19' W 120°49'612.5
2018-Jul-09 02:00N 29°14' W 120°44'612.6
2018-Jul-09 01:30N 29°10' W 120°38'612.7
2018-Jul-09 01:00N 29°06' W 120°33'612.4
2018-Jul-09 00:30N 29°02' W 120°28'612.7
2018-Jul-09 00:00N 28°57' W 120°22'1412.8
2018-Jul-08 22:53N 28°48' W 120°10'512.8
2018-Jul-08 22:30N 28°45' W 120°06'1512.7
2018-Jul-08 21:18N 28°34' W 119°53'412.6
2018-Jul-08 21:00N 28°32' W 119°50'612.7
2018-Jul-08 20:30N 28°28' W 119°45'612.8
2018-Jul-08 20:00N 28°23' W 119°39'612.6
2018-Jul-08 19:30N 28°19' W 119°34'612.7
2018-Jul-08 19:00N 28°15' W 119°29'712.8
2018-Jul-08 18:28N 28°10' W 119°23'613.1
2018-Jul-08 18:00N 28°06' W 119°18'713.0
2018-Jul-08 17:28N 28°01' W 119°12'1413.0
2018-Jul-08 16:22N 27°52' W 119°00'512.8
2018-Jul-08 15:59N 27°48' W 118°56'612.8
2018-Jul-08 15:30N 27°44' W 118°51'1612.8
2018-Jul-08 14:13N 27°33' W 118°37'412.9
2018-Jul-08 13:54N 27°30' W 118°34'513.0
2018-Jul-08 13:30N 27°27' W 118°29'1113.1
2018-Jul-08 12:38N 27°19' W 118°20'313.1
2018-Jul-08 12:24N 27°17' W 118°17'6412.8
2018-Jul-08 07:26N 26°34' W 117°25'  
Track history (hours):
 
Tides and Currents Weather Stations Pressure Air Temp Water Temp Dewpoint Dewpoint Depression Visibility Wind Speed Wind Dir Waves Ship Positions

Catalonia

Last reported at 2018-Jul-10 17:01 UTC. Time now 2018-Jul-17 05:31 UTC.
Position N 34°25' W 127°25'.

Length 189 m; draft 11.4 m.

Type: Ship. MMSI: 215929000.

Date/timePositionNaut miles runAvg speedWind from/ knotsBaromVisibWave heightAir tempDewpointWater temp
2018-Jul-10 17:01N 34°25' W 127°25'112.6
2018-Jul-10 16:55N 34°24' W 127°24'1212.3
2018-Jul-10 15:58N 34°16' W 127°13'612.5
2018-Jul-10 15:30N 34°12' W 127°08'611.9
2018-Jul-10 15:00N 34°08' W 127°03'612.0
2018-Jul-10 14:28N 34°04' W 126°57'611.9
2018-Jul-10 14:00N 34°00' W 126°52'611.9
2018-Jul-10 13:30N 33°56' W 126°47'611.9
2018-Jul-10 13:00N 33°52' W 126°42'611.9
2018-Jul-10 12:30N 33°48' W 126°36'611.9
2018-Jul-10 11:59N 33°44' W 126°31'612.0
2018-Jul-10 11:30N 33°40' W 126°26'611.8
2018-Jul-10 11:00N 33°36' W 126°21'611.6
2018-Jul-10 10:30N 33°32' W 126°15'611.7
2018-Jul-10 10:00N 33°28' W 126°10'611.6
2018-Jul-10 09:30N 33°24' W 126°05'611.6
2018-Jul-10 09:00N 33°21' W 125°60'611.7
2018-Jul-10 08:30N 33°17' W 125°55'611.6
2018-Jul-10 08:00N 33°13' W 125°50'611.6
2018-Jul-10 07:30N 33°09' W 125°45'611.7
2018-Jul-10 07:00N 33°05' W 125°39'611.7
2018-Jul-10 06:30N 33°01' W 125°34'611.7
2018-Jul-10 06:00N 32°57' W 125°29'611.8
2018-Jul-10 05:29N 32°53' W 125°24'611.7
2018-Jul-10 05:00N 32°49' W 125°19'611.7
2018-Jul-10 04:30N 32°45' W 125°14'611.4
2018-Jul-10 04:00N 32°41' W 125°09'611.5
2018-Jul-10 03:30N 32°37' W 125°04'611.7
2018-Jul-10 03:00N 32°34' W 124°58'611.7
2018-Jul-10 02:30N 32°30' W 124°53'611.7
2018-Jul-10 02:00N 32°26' W 124°48'611.8
2018-Jul-10 01:28N 32°21' W 124°43'611.8
2018-Jul-10 01:00N 32°18' W 124°38'611.5
2018-Jul-10 00:29N 32°14' W 124°32'511.4
2018-Jul-10 00:00N 32°10' W 124°28'611.3
2018-Jul-09 23:30N 32°06' W 124°23'611.2
2018-Jul-09 23:00N 32°02' W 124°18'611.3
2018-Jul-09 22:30N 31°59' W 124°13'611.7
2018-Jul-09 22:00N 31°55' W 124°08'611.5
2018-Jul-09 21:30N 31°51' W 124°03'611.5
2018-Jul-09 21:00N 31°47' W 123°58'611.6
2018-Jul-09 20:30N 31°43' W 123°53'611.6
2018-Jul-09 20:00N 31°39' W 123°48'611.5
2018-Jul-09 19:30N 31°35' W 123°43'611.8
2018-Jul-09 19:00N 31°31' W 123°38'611.9
2018-Jul-09 18:30N 31°27' W 123°33'611.6
2018-Jul-09 18:00N 31°23' W 123°28'611.5
2018-Jul-09 17:30N 31°19' W 123°23'611.6
2018-Jul-09 17:00N 31°16' W 123°18'611.6
2018-Jul-09 16:30N 31°12' W 123°12'611.6
2018-Jul-09 16:00N 31°08' W 123°07'611.8
2018-Jul-09 15:30N 31°04' W 123°02'611.9
2018-Jul-09 15:00N 30°60' W 122°57'612.1
2018-Jul-09 14:30N 30°56' W 122°52'612.0
2018-Jul-09 14:00N 30°52' W 122°47'612.0
2018-Jul-09 13:31N 30°48' W 122°42'611.9
2018-Jul-09 13:00N 30°44' W 122°37'612.0
2018-Jul-09 12:30N 30°40' W 122°32'611.9
2018-Jul-09 12:00N 30°36' W 122°26'612.0
2018-Jul-09 11:30N 30°32' W 122°21'612.1
2018-Jul-09 11:00N 30°27' W 122°16'612.2
2018-Jul-09 10:30N 30°23' W 122°11'612.3
2018-Jul-09 10:00N 30°19' W 122°06'612.2
2018-Jul-09 09:30N 30°15' W 122°00'612.2
2018-Jul-09 09:00N 30°11' W 121°55'612.0
2018-Jul-09 08:30N 30°07' W 121°50'612.0
2018-Jul-09 08:00N 30°03' W 121°45'611.9
2018-Jul-09 07:30N 29°59' W 121°40'611.7
2018-Jul-09 06:59N 29°55' W 121°35'611.6
2018-Jul-09 06:30N 29°51' W 121°30'611.7
2018-Jul-09 06:00N 29°47' W 121°25'611.8
2018-Jul-09 05:30N 29°43' W 121°20'611.9
2018-Jul-09 05:00N 29°39' W 121°15'611.9
2018-Jul-09 04:30N 29°35' W 121°10'612.1
2018-Jul-09 04:00N 29°31' W 121°05'612.2
2018-Jul-09 03:30N 29°27' W 120°59'612.3
2018-Jul-09 03:00N 29°23' W 120°54'612.2
2018-Jul-09 02:30N 29°19' W 120°49'612.5
2018-Jul-09 02:00N 29°14' W 120°44'612.6
2018-Jul-09 01:30N 29°10' W 120°38'612.7
2018-Jul-09 01:00N 29°06' W 120°33'612.4
2018-Jul-09 00:30N 29°02' W 120°28'612.7
2018-Jul-09 00:00N 28°57' W 120°22'1412.8
2018-Jul-08 22:53N 28°48' W 120°10'512.8
2018-Jul-08 22:30N 28°45' W 120°06'1512.7
2018-Jul-08 21:18N 28°34' W 119°53'412.6
2018-Jul-08 21:00N 28°32' W 119°50'612.7
2018-Jul-08 20:30N 28°28' W 119°45'612.8
2018-Jul-08 20:00N 28°23' W 119°39'612.6
2018-Jul-08 19:30N 28°19' W 119°34'612.7
2018-Jul-08 19:00N 28°15' W 119°29'712.8
2018-Jul-08 18:28N 28°10' W 119°23'613.1
2018-Jul-08 18:00N 28°06' W 119°18'713.0
2018-Jul-08 17:28N 28°01' W 119°12'1413.0
2018-Jul-08 16:22N 27°52' W 119°00'512.8
2018-Jul-08 15:59N 27°48' W 118°56'612.8
2018-Jul-08 15:30N 27°44' W 118°51'1612.8
2018-Jul-08 14:13N 27°33' W 118°37'412.9
2018-Jul-08 13:54N 27°30' W 118°34'513.0
2018-Jul-08 13:30N 27°27' W 118°29'1113.1
2018-Jul-08 12:38N 27°19' W 118°20'313.1
2018-Jul-08 12:24N 27°17' W 118°17'6412.8
2018-Jul-08 07:26N 26°34' W 117°25'  

Dump ship's entire track history